Time;durP1;ratioP1;P1;durP2;ratioP2;P2;SDS_P1;SDS_P2;PMS_P1;PMS_P2;Temp;Humidity;BMP_temperature;BMP_pressure;BME280_temperature;BME280_humidity;BME280_pressure;Samples;Min_cycle;Max_cycle;Signal;HPM_P1;HPM_P2
2022/05/22 14:49:15;;;;;;;4.57;2.13;;;25.20;39.40;;;;;;8284099;28;20866;-45
2022/05/22 14:53:24;;;;;;;3.75;2.00;;;25.80;38.90;;;;;;8283998;28;20385;-46
2022/05/22 14:57:32;;;;;;;2.78;2.15;;;25.80;38.90;;;;;;8284368;28;20041;-47
2022/05/22 15:01:40;;;;;;;4.00;1.65;;;25.70;38.80;;;;;;8285606;28;20034;-46
2022/05/22 15:05:49;;;;;;;4.57;1.70;;;25.80;38.90;;;;;;8286431;28;20042;-47
2022/05/22 15:09:59;;;;;;;2.00;1.70;;;25.80;39.00;;;;;;8285807;28;20034;-47
2022/05/22 15:14:02;;;;;;;3.27;1.73;;;25.70;38.90;;;;;;8286061;28;20064;-46
2022/05/22 15:18:21;;;;;;;2.13;1.75;;;25.70;39.00;;;;;;8285460;28;20038;-47
2022/05/22 15:26:49;;;;;;;1.95;1.85;;;25.70;39.00;;;;;;8285500;28;20253;-46
2022/05/22 15:30:59;;;;;;;2.22;1.98;;;25.70;39.00;;;;;;8284807;28;20160;-48
2022/05/22 15:35:00;;;;;;;1.83;1.50;;;25.70;39.00;;;;;;8285180;28;20045;-41
2022/05/22 15:39:06;;;;;;;2.70;1.85;;;25.70;39.00;;;;;;8269098;28;20129;-43
2022/05/22 15:43:11;;;;;;;2.08;1.60;;;25.70;39.00;;;;;;8263621;28;20042;-40
2022/05/22 15:47:20;;;;;;;3.85;2.20;;;25.70;39.00;;;;;;8280799;28;20120;-40
2022/05/22 15:51:23;;;;;;;3.70;1.85;;;25.70;39.00;;;;;;8295003;28;20037;-40
2022/05/22 15:55:25;;;;;;;3.42;1.90;;;25.70;39.00;;;;;;8295674;28;20096;-40
2022/05/22 15:59:26;;;;;;;2.35;2.10;;;25.70;39.00;;;;;;8295678;28;20052;-41
2022/05/22 16:03:28;;;;;;;3.03;1.90;;;25.70;39.50;;;;;;8294954;28;20041;-41
2022/05/22 16:07:30;;;;;;;2.45;2.15;;;25.70;39.00;;;;;;8295301;28;20046;-41
2022/05/22 16:11:31;;;;;;;2.80;1.98;;;25.70;39.00;;;;;;8294630;28;20070;-41
2022/05/22 16:15:32;;;;;;;4.60;1.83;;;25.70;39.00;;;;;;8294162;28;20056;-41
2022/05/22 16:19:34;;;;;;;;;;;25.70;39.00;;;;;;8295114;28;20049;-41
2022/05/22 16:23:35;;;;;;;3.95;2.15;;;25.70;39.10;;;;;;8294956;28;20427;-41
2022/05/22 16:27:35;;;;;;;3.92;2.60;;;25.70;39.10;;;;;;8293727;28;20042;-41
2022/05/22 16:31:37;;;;;;;;;;;25.70;39.10;;;;;;8294503;28;20034;-41
2022/05/22 16:35:40;;;;;;;2.30;2.03;;;25.70;39.20;;;;;;8293975;28;19920;-41
2022/05/22 16:39:41;;;;;;;4.13;2.17;;;25.70;39.20;;;;;;8293544;28;20034;-41
2022/05/22 16:43:42;;;;;;;3.55;2.65;;;25.70;39.30;;;;;;8293975;28;20510;-41
2022/05/22 16:53:01;;;;;;;2.83;2.10;;;25.70;39.30;;;;;;8292714;28;20125;-41
2022/05/22 16:56:24;;;;;;;3.72;2.50;;;25.60;39.20;;;;;;8293117;28;20062;-42
2022/05/22 17:00:24;;;;;;;2.30;2.10;;;25.60;39.30;;;;;;8292794;28;20034;-41
2022/05/22 17:04:25;;;;;;;;;;;25.60;39.30;;;;;;8293839;28;20042;-41
2022/05/22 17:08:38;;;;;;;4.03;2.83;;;25.60;39.20;;;;;;8292906;28;19929;-42
2022/05/22 17:12:39;;;;;;;4.68;2.53;;;25.60;39.30;;;;;;8292590;28;20030;-41
2022/05/22 17:16:39;;;;;;;;;;;25.60;39.30;;;;;;8293386;28;20522;-41
2022/05/22 17:20:43;;;;;;;4.27;2.90;;;25.60;39.30;;;;;;8292670;28;19957;-41
2022/05/22 17:24:57;;;;;;;3.83;2.80;;;25.60;39.40;;;;;;8292119;28;20282;-42
2022/05/22 17:28:58;;;;;;;4.15;2.40;;;25.60;39.60;;;;;;8292670;28;20030;-42
2022/05/22 17:32:59;;;;;;;5.65;2.88;;;25.60;39.70;;;;;;8292751;28;20045;-41
2022/05/22 17:37:03;;;;;;;4.43;2.72;;;25.60;39.60;;;;;;8291988;28;20030;-41
2022/05/22 17:41:05;;;;;;;3.38;2.90;;;25.60;39.60;;;;;;8292005;28;20063;-41
2022/05/22 17:45:07;;;;;;;4.25;3.05;;;25.60;39.70;;;;;;8290784;28;20065;-41
2022/05/22 17:49:07;;;;;;;4.07;2.80;;;25.60;39.80;;;;;;8291608;28;20064;-41
2022/05/22 17:53:13;;;;;;;3.40;2.80;;;25.60;39.80;;;;;;8292410;28;20121;-42
2022/05/22 17:57:15;;;;;;;3.67;2.92;;;25.50;39.80;;;;;;8291307;28;20080;-42
2022/05/22 18:01:15;;;;;;;3.28;2.47;;;25.60;39.90;;;;;;8274072;28;20041;-42
2022/05/22 18:05:16;;;;;;;3.38;2.60;;;25.50;39.90;;;;;;8291619;28;20085;-42
2022/05/22 18:09:20;;;;;;;3.22;2.60;;;25.60;39.90;;;;;;8291321;28;20034;-41
2022/05/22 18:17:42;;;;;;;4.05;3.05;;;25.50;40.00;;;;;;8292442;28;20116;-41
2022/05/22 18:21:43;;;;;;;;;;;25.50;39.90;;;;;;8291215;28;20030;-41
2022/05/22 18:25:46;;;;;;;6.05;3.30;;;25.50;40.00;;;;;;8291227;28;20023;-41
2022/05/22 18:29:47;;;;;;;3.72;2.83;;;25.50;40.00;;;;;;8290967;28;20050;-41
2022/05/22 18:33:47;;;;;;;5.68;3.00;;;25.50;40.00;;;;;;8290459;28;20095;-41
2022/05/22 18:37:48;;;;;;;;;;;25.50;40.00;;;;;;8291494;28;20044;-41
2022/05/22 18:41:49;;;;;;;4.50;2.88;;;25.50;40.10;;;;;;8290706;28;19913;-41
2022/05/22 18:45:50;;;;;;;;;;;25.50;40.20;;;;;;8290512;28;20045;-41
2022/05/22 18:49:51;;;;;;;3.80;2.38;;;25.50;40.20;;;;;;8290873;28;19920;-41
2022/05/22 18:53:51;;;;;;;4.57;2.60;;;25.50;40.20;;;;;;8290822;28;20113;-41
2022/05/22 18:57:52;;;;;;;;;;;25.50;40.20;;;;;;8290713;28;20030;-41
2022/05/22 19:01:52;;;;;;;4.00;2.63;;;25.50;40.20;;;;;;8290863;28;19976;-41
2022/05/22 19:05:54;;;;;;;3.08;2.78;;;25.40;40.20;;;;;;8290447;28;20053;-41
2022/05/22 19:09:54;;;;;;;2.92;2.50;;;25.40;40.30;;;;;;8289707;28;20030;-41
2022/05/22 19:13:57;;;;;;;3.63;2.95;;;25.40;40.30;;;;;;8293955;28;20506;-41
2022/05/22 19:17:58;;;;;;;3.60;2.83;;;25.40;40.30;;;;;;8296694;28;20092;-41
2022/05/22 19:22:01;;;;;;;4.53;2.58;;;25.40;40.30;;;;;;8295880;28;20083;-41
2022/05/22 19:26:01;;;;;;;4.50;2.90;;;25.40;40.30;;;;;;8296062;28;20053;-41
2022/05/22 19:30:08;;;;;;;4.43;2.75;;;25.40;40.90;;;;;;8295632;28;20333;-41
2022/05/22 19:34:11;;;;;;;3.28;2.78;;;25.40;40.40;;;;;;8296389;28;20410;-41
2022/05/22 19:38:11;;;;;;;3.10;2.65;;;25.40;40.40;;;;;;8295949;28;20486;-41
2022/05/22 19:46:38;;;;;;;2.65;2.45;;;25.40;40.40;;;;;;8295718;28;20053;-41
2022/05/22 19:50:40;;;;;;;3.58;2.60;;;25.40;40.40;;;;;;8295615;28;20133;-41
2022/05/22 19:59:02;;;;;;;3.13;2.53;;;25.40;40.50;;;;;;8295627;28;20088;-42
2022/05/22 20:03:05;;;;;;;3.70;2.58;;;25.40;40.40;;;;;;8294643;28;20452;-41
2022/05/22 20:07:07;;;;;;;2.97;2.63;;;25.40;40.50;;;;;;8295327;28;20056;-41
2022/05/22 20:11:10;;;;;;;3.78;2.72;;;25.40;40.50;;;;;;8294830;28;20041;-41
2022/05/22 20:15:12;;;;;;;2.90;2.33;;;25.40;40.50;;;;;;8294615;28;20049;-41
2022/05/22 20:19:14;;;;;;;2.55;2.30;;;25.40;40.50;;;;;;8295152;28;20084;-42
2022/05/22 20:23:15;;;;;;;4.35;2.40;;;25.40;40.50;;;;;;8294410;28;20395;-41
2022/05/22 20:27:16;;;;;;;3.63;2.88;;;25.30;40.50;;;;;;8293455;28;20681;-41
2022/05/22 20:31:16;;;;;;;3.78;2.72;;;25.30;40.50;;;;;;8293981;28;20081;-41
2022/05/22 20:35:17;;;;;;;;;;;25.30;40.50;;;;;;8294245;28;20514;-41
2022/05/22 20:39:18;;;;;;;3.15;2.60;;;25.30;40.50;;;;;;8293517;28;19992;-41
2022/05/22 20:43:20;;;;;;;4.22;3.22;;;25.30;40.50;;;;;;8293762;28;20398;-41
2022/05/22 20:47:20;;;;;;;4.32;2.58;;;25.30;40.50;;;;;;8293503;28;20045;-41
2022/05/22 20:51:21;;;;;;;3.50;2.85;;;25.30;40.50;;;;;;8293129;28;20057;-42
2022/05/22 20:59:44;;;;;;;3.08;2.63;;;25.30;40.50;;;;;;8293629;28;20449;-43
2022/05/22 21:03:44;;;;;;;4.32;2.72;;;25.30;40.50;;;;;;8293006;28;20030;-40
2022/05/22 21:07:45;;;;;;;2.95;2.42;;;25.30;40.50;;;;;;8293307;28;20060;-42
2022/05/22 21:11:52;;;;;;;4.22;3.25;;;25.30;40.50;;;;;;8292680;28;20048;-42
2022/05/22 21:16:00;;;;;;;3.55;2.83;;;25.30;40.60;;;;;;8292268;28;20395;-42
2022/05/22 21:20:00;;;;;;;4.32;3.03;;;25.30;40.50;;;;;;8293011;28;20034;-42
2022/05/22 21:28:29;;;;;;;5.88;3.00;;;25.20;40.40;;;;;;8292318;28;20053;-42
2022/05/22 21:32:30;;;;;;;2.90;2.42;;;25.20;40.50;;;;;;8292355;28;20050;-42
2022/05/22 21:36:30;;;;;;;2.97;2.53;;;25.20;40.50;;;;;;8291065;28;20053;-42
2022/05/22 21:40:31;;;;;;;3.60;2.88;;;25.20;40.50;;;;;;8292198;28;20041;-43
2022/05/22 21:44:46;;;;;;;5.07;2.42;;;25.20;40.50;;;;;;8292371;28;20350;-40
2022/05/22 21:48:47;;;;;;;3.20;2.90;;;25.20;40.50;;;;;;8291587;28;20441;-43
2022/05/22 21:52:47;;;;;;;3.03;2.72;;;25.20;40.50;;;;;;8291821;28;20042;-41
2022/05/22 21:56:54;;;;;;;3.42;3.13;;;25.20;40.50;;;;;;8292275;28;20414;-41
2022/05/22 22:00:58;;;;;;;2.83;2.60;;;25.20;40.60;;;;;;8291147;28;20095;-42
2022/05/22 22:04:58;;;;;;;2.83;2.40;;;25.20;40.60;;;;;;8291653;28;20034;-42
2022/05/22 22:08:59;;;;;;;3.20;2.47;;;25.20;40.50;;;;;;8291085;28;20077;-41
2022/05/22 22:13:00;;;;;;;6.05;2.67;;;25.20;40.60;;;;;;8291401;28;20034;-41
2022/05/22 22:17:01;;;;;;;2.80;2.50;;;25.20;40.60;;;;;;8291454;28;20034;-41
2022/05/22 22:21:04;;;;;;;2.65;2.42;;;25.10;40.50;;;;;;8290588;28;20401;-41
2022/05/22 22:25:05;;;;;;;4.63;3.42;;;25.10;40.50;;;;;;8291468;28;20033;-41
2022/05/22 22:29:06;;;;;;;3.45;2.88;;;25.10;40.60;;;;;;8291213;28;20584;-41
2022/05/22 22:33:08;;;;;;;2.70;2.50;;;25.10;40.60;;;;;;8290822;28;20045;-41
2022/05/22 22:37:08;;;;;;;3.63;2.70;;;25.10;40.50;;;;;;8290664;28;20068;-41
2022/05/22 22:41:09;;;;;;;3.30;2.78;;;25.10;40.60;;;;;;8290946;28;20347;-41
2022/05/22 22:45:12;;;;;;;3.72;2.72;;;25.10;40.60;;;;;;8290587;28;20108;-41
2022/05/22 22:49:13;;;;;;;3.60;2.50;;;25.10;40.60;;;;;;8295600;28;20398;-42
2022/05/22 22:53:13;;;;;;;6.18;3.03;;;25.10;40.60;;;;;;8297324;28;20041;-42
2022/05/22 23:01:38;;;;;;;3.88;2.97;;;25.10;40.60;;;;;;8297403;28;20477;-42
2022/05/22 23:05:39;;;;;;;3.10;2.60;;;25.10;40.60;;;;;;8296954;28;20125;-42
2022/05/22 23:09:41;;;;;;;3.17;2.80;;;25.00;40.60;;;;;;8296655;28;20022;-42
2022/05/22 23:13:42;;;;;;;3.20;2.42;;;25.00;40.60;;;;;;8297345;28;20034;-42
2022/05/22 23:17:43;;;;;;;2.50;2.30;;;25.00;40.60;;;;;;8296614;28;20038;-42
2022/05/22 23:21:44;;;;;;;;;;;25.00;40.60;;;;;;8296688;28;20053;-42
2022/05/22 23:25:51;;;;;;;3.97;2.73;;;25.00;40.60;;;;;;8296647;28;19918;-42
2022/05/22 23:29:52;;;;;;;3.60;2.58;;;25.00;40.60;;;;;;8296804;28;20268;-42
2022/05/22 23:33:53;;;;;;;2.50;2.30;;;25.00;40.60;;;;;;8295725;28;20100;-42
2022/05/22 23:38:16;;;;;;;3.83;2.60;;;25.00;40.60;;;;;;8296154;28;20034;-42
2022/05/22 23:42:17;;;;;;;2.90;2.55;;;25.00;40.60;;;;;;8295386;28;20048;-42
2022/05/22 23:46:17;;;;;;;3.13;2.70;;;25.00;40.60;;;;;;8295507;28;20118;-42
2022/05/22 23:50:19;;;;;;;2.65;2.42;;;25.00;40.60;;;;;;8295944;28;20026;-42
2022/05/22 23:54:42;;;;;;;3.33;2.60;;;24.90;40.50;;;;;;8294996;28;20066;-42
2022/05/22 23:58:42;;;;;;;4.18;2.53;;;24.90;40.50;;;;;;8294910;28;20046;-41
